createdAt,value
2022-11-05T00:02:24.368Z,15.98
2022-11-05T00:05:09.194Z,13.18
2022-11-05T00:08:06.346Z,14.33
2022-11-05T00:10:36.742Z,13.32
2022-11-05T00:13:27.562Z,14.35
2022-11-05T00:16:12.760Z,15.48
2022-11-05T00:18:42.207Z,22.85
2022-11-05T00:21:28.957Z,22.70
2022-11-05T00:24:21.723Z,17.58
2022-11-05T00:26:50.469Z,17.08
2022-11-05T00:29:16.864Z,16.95
2022-11-05T00:31:43.243Z,16.50
2022-11-05T00:34:11.076Z,16.20
2022-11-05T00:36:37.524Z,16.70
2022-11-05T00:39:05.897Z,16.80
2022-11-05T00:41:32.300Z,15.25
2022-11-05T00:44:17.766Z,14.75
2022-11-05T00:46:44.149Z,15.82
2022-11-05T00:49:30.147Z,14.55
2022-11-05T00:52:15.442Z,12.65
2022-11-05T00:54:41.843Z,13.80
2022-11-05T00:57:08.217Z,14.30
2022-11-05T00:59:34.613Z,13.45
2022-11-05T01:02:09.786Z,14.13
2022-11-05T01:07:02.594Z,14.40
2022-11-05T01:09:29.042Z,13.50
2022-11-05T01:11:55.764Z,13.27
2022-11-05T01:14:22.156Z,15.70
2022-11-05T01:16:48.718Z,13.88
2022-11-05T01:19:15.357Z,14.13
2022-11-05T01:21:41.819Z,12.73
2022-11-05T01:24:17.801Z,12.18
2022-11-05T01:26:44.229Z,11.90
2022-11-05T01:29:11.070Z,12.82
2022-11-05T01:31:37.565Z,11.80
2022-11-05T01:34:04.041Z,11.50
2022-11-05T01:36:30.438Z,12.43
2022-11-05T01:38:56.962Z,13.15
2022-11-05T01:41:23.551Z,12.43
2022-11-05T01:43:56.562Z,12.00
2022-11-05T01:46:49.204Z,13.15
2022-11-05T01:49:29.021Z,11.95
2022-11-05T01:52:07.469Z,11.05
2022-11-05T01:54:35.168Z,11.95
2022-11-05T01:57:17.798Z,11.95
2022-11-05T01:59:49.640Z,11.82
2022-11-05T02:02:29.470Z,12.80
2022-11-05T02:05:00.635Z,13.27
2022-11-05T02:07:33.606Z,12.90
2022-11-05T02:10:04.209Z,13.18
2022-11-05T02:12:42.106Z,12.48
2022-11-05T02:15:13.434Z,12.52
2022-11-05T02:17:55.532Z,14.02
2022-11-05T02:20:27.906Z,11.98
2022-11-05T02:23:41.035Z,12.50
2022-11-05T02:26:44.274Z,12.02
2022-11-05T02:29:55.248Z,12.23
2022-11-05T02:32:50.769Z,12.65
2022-11-05T02:35:48.874Z,12.63
2022-11-05T02:38:38.973Z,13.48
2022-11-05T02:41:22.179Z,12.52
2022-11-05T02:44:17.608Z,14.10
2022-11-05T02:47:12.885Z,12.18
2022-11-05T02:49:48.136Z,12.85
2022-11-05T02:52:21.990Z,12.43
2022-11-05T02:55:03.260Z,12.40
2022-11-05T02:57:30.760Z,12.32
2022-11-05T03:00:05.779Z,10.63
2022-11-05T03:02:33.059Z,12.82
2022-11-05T03:05:00.921Z,11.32
2022-11-05T03:07:36.577Z,12.13
2022-11-05T03:10:11.534Z,12.27
2022-11-05T03:12:51.848Z,14.18
2022-11-05T03:15:30.457Z,13.57
2022-11-05T03:18:38.743Z,14.68
2022-11-05T03:21:09.236Z,14.95
2022-11-05T03:23:58.826Z,13.88
2022-11-05T03:26:32.006Z,13.80
2022-11-05T03:29:07.167Z,14.98
2022-11-05T03:31:36.525Z,13.25
2022-11-05T03:34:06.692Z,13.88
2022-11-05T03:36:41.818Z,13.93
2022-11-05T03:39:13.757Z,13.75
2022-11-05T03:41:44.371Z,14.05
2022-11-05T03:44:13.808Z,16.38
2022-11-05T03:46:49.290Z,14.02
2022-11-05T03:49:21.398Z,14.48
2022-11-05T03:52:13.246Z,13.93
2022-11-05T03:54:40.168Z,13.50
2022-11-05T03:57:10.963Z,13.52
2022-11-05T03:59:43.940Z,13.55
2022-11-05T04:02:18.695Z,13.63
2022-11-05T04:04:45.813Z,14.02
2022-11-05T04:07:31.029Z,14.23
2022-11-05T04:10:16.176Z,13.77
2022-11-05T04:13:01.213Z,13.23
2022-11-05T04:15:29.603Z,15.90
2022-11-05T04:17:58.797Z,15.13
2022-11-05T04:21:00.347Z,14.18
2022-11-05T04:23:45.526Z,16.58
2022-11-05T04:26:11.912Z,16.13
2022-11-05T04:28:56.872Z,17.70
2022-11-05T04:31:26.267Z,15.68
2022-11-05T04:33:52.647Z,16.23
2022-11-05T04:36:19.641Z,15.52
2022-11-05T04:38:46.044Z,14.82
2022-11-05T04:41:13.903Z,16.77
2022-11-05T04:43:40.398Z,15.82
2022-11-05T04:46:07.325Z,17.25
2022-11-05T04:48:33.914Z,18.77
2022-11-05T04:51:06.180Z,17.05
2022-11-05T04:53:32.743Z,16.63
2022-11-05T04:56:35.785Z,17.73
2022-11-05T04:59:02.322Z,17.52
2022-11-05T05:01:33.238Z,16.75
2022-11-05T05:03:59.758Z,16.98
2022-11-05T05:06:26.623Z,16.38
2022-11-05T05:08:53.147Z,16.00
2022-11-05T05:11:21.237Z,16.27
2022-11-05T05:13:50.783Z,17.05
2022-11-05T05:16:24.132Z,16.60
2022-11-05T05:18:57.379Z,17.63
2022-11-05T05:21:39.126Z,16.75
2022-11-05T05:24:11.237Z,17.70
2022-11-05T05:26:39.217Z,16.23
2022-11-05T05:29:06.736Z,18.58
2022-11-05T05:31:33.429Z,17.77
2022-11-05T05:34:00.190Z,17.27
2022-11-05T05:36:27.191Z,17.45
2022-11-05T05:38:53.671Z,18.52
2022-11-05T05:41:29.211Z,17.42
2022-11-05T05:43:55.680Z,17.92
2022-11-05T05:46:22.142Z,18.85
2022-11-05T05:48:51.258Z,18.02
2022-11-05T05:51:18.947Z,17.35
2022-11-05T05:53:45.470Z,19.52
2022-11-05T05:56:14.848Z,18.08
2022-11-05T05:58:49.980Z,19.00
2022-11-05T06:01:19.685Z,19.08
2022-11-05T06:03:51.562Z,17.48
2022-11-05T06:06:19.960Z,17.08
2022-11-05T06:08:46.785Z,17.55
2022-11-05T06:11:13.706Z,17.23
2022-11-05T06:13:40.127Z,17.05
2022-11-05T06:16:13.003Z,17.00
2022-11-05T06:18:39.453Z,18.05
2022-11-05T06:21:15.721Z,15.95
2022-11-05T06:23:44.266Z,16.95
2022-11-05T06:26:42.815Z,17.75
2022-11-05T06:29:10.622Z,19.00
2022-11-05T06:31:38.496Z,20.25
2022-11-05T06:34:04.895Z,19.30
2022-11-05T06:36:31.348Z,18.63
2022-11-05T06:38:57.723Z,19.30
2022-11-05T06:41:24.101Z,19.50
2022-11-05T06:43:50.594Z,18.73
2022-11-05T06:46:17.062Z,18.52
2022-11-05T06:48:43.485Z,20.83
2022-11-05T06:51:09.943Z,19.08
2022-11-05T06:53:36.393Z,18.45
2022-11-05T06:56:05.624Z,19.10
2022-11-05T06:58:32.298Z,19.17
2022-11-05T07:01:04.523Z,19.85
2022-11-05T07:03:31.353Z,19.25
2022-11-05T07:06:00.698Z,20.98
2022-11-05T07:08:31.390Z,20.23
2022-11-05T07:10:58.445Z,17.67
2022-11-05T07:13:29.418Z,21.08
2022-11-05T07:15:56.586Z,21.42
2022-11-05T07:18:23.738Z,20.70
2022-11-05T07:20:50.145Z,20.33
2022-11-05T07:23:16.922Z,22.83
2022-11-05T07:25:43.717Z,21.80
2022-11-05T07:28:10.880Z,21.25
2022-11-05T07:30:37.935Z,25.10
2022-11-05T07:33:04.406Z,20.83
2022-11-05T07:35:30.985Z,21.20
2022-11-05T07:37:57.727Z,22.23
2022-11-05T07:40:26.202Z,20.13
2022-11-05T07:42:54.643Z,20.27
2022-11-05T07:45:30.958Z,17.30
2022-11-05T07:48:00.334Z,23.13
2022-11-05T07:50:38.387Z,13.07
2022-11-05T07:53:14.979Z,13.60
2022-11-05T07:55:52.462Z,12.65
2022-11-05T07:58:18.922Z,25.98
2022-11-05T08:00:58.866Z,24.98
2022-11-05T08:03:25.537Z,8.90
2022-11-05T08:05:51.992Z,25.90
2022-11-05T08:08:19.780Z,12.43
2022-11-05T08:10:47.144Z,26.40
2022-11-05T08:13:14.721Z,21.85
2022-11-05T08:15:42.949Z,25.40
2022-11-05T08:18:14.978Z,24.65
2022-11-05T08:20:43.216Z,24.58
2022-11-05T08:23:10.653Z,25.27
2022-11-05T08:25:37.482Z,23.27
2022-11-05T08:28:07.512Z,25.70
2022-11-05T08:30:35.216Z,24.80
2022-11-05T08:33:05.505Z,9.98
2022-11-05T08:35:34.478Z,20.15
2022-11-05T08:38:03.978Z,20.33
2022-11-05T08:40:33.176Z,27.92
2022-11-05T08:43:02.704Z,23.05
2022-11-05T08:45:33.572Z,14.20
2022-11-05T08:48:03.860Z,17.30
2022-11-05T08:50:31.069Z,5.38
2022-11-05T08:52:57.904Z,11.20
2022-11-05T08:55:24.872Z,12.02
2022-11-05T08:57:59.210Z,19.88
2022-11-05T09:00:27.389Z,11.48
2022-11-05T09:02:54.211Z,10.35
2022-11-05T09:05:21.210Z,8.60
2022-11-05T09:07:47.876Z,5.18
2022-11-05T09:10:14.856Z,9.38
2022-11-05T09:12:41.511Z,5.70
2022-11-05T09:15:09.273Z,13.52
2022-11-05T09:17:35.770Z,13.63
2022-11-05T09:20:03.628Z,9.82
2022-11-05T09:22:30.256Z,13.20
2022-11-05T09:24:56.729Z,5.35
2022-11-05T09:27:23.184Z,12.85
2022-11-05T09:29:49.605Z,9.18
2022-11-05T09:32:19.318Z,5.43
2022-11-05T09:34:45.820Z,6.95
2022-11-05T09:37:12.263Z,9.43
2022-11-05T09:39:38.653Z,9.88
2022-11-05T09:42:07.934Z,11.20
2022-11-05T09:44:42.945Z,4.07
2022-11-05T09:47:53.628Z,11.88
2022-11-05T09:50:25.996Z,10.70
2022-11-05T09:52:52.429Z,3.88
2022-11-05T09:55:32.385Z,10.45
2022-11-05T09:58:10.780Z,9.48
2022-11-05T10:00:37.403Z,7.43
2022-11-05T10:03:11.778Z,6.63
2022-11-05T10:05:40.324Z,4.10
2022-11-05T10:08:16.907Z,6.07
2022-11-05T10:10:47.488Z,5.43
2022-11-05T10:13:39.761Z,8.02
2022-11-05T10:16:41.672Z,4.28
2022-11-05T10:19:39.355Z,9.05
2022-11-05T10:22:16.199Z,3.50
2022-11-05T10:24:50.998Z,4.55
2022-11-05T10:27:25.172Z,3.83
2022-11-05T10:29:52.022Z,6.53
2022-11-05T10:32:28.901Z,4.32
2022-11-05T10:34:59.445Z,6.55
2022-11-05T10:37:27.720Z,6.75
2022-11-05T10:39:54.519Z,2.15
2022-11-05T10:43:06.091Z,2.67
2022-11-05T10:45:44.638Z,4.38
2022-11-05T10:48:45.258Z,3.40
2022-11-05T10:51:12.613Z,3.15
2022-11-05T10:53:42.465Z,2.78
2022-11-05T10:56:33.144Z,4.55
2022-11-05T10:59:01.863Z,3.90
2022-11-05T11:01:29.258Z,1.73
2022-11-05T11:04:17.253Z,2.28
2022-11-05T11:06:49.627Z,3.00
2022-11-05T11:09:24.181Z,2.55
2022-11-05T11:11:59.343Z,4.03
2022-11-05T11:14:26.425Z,2.97
2022-11-05T11:16:57.634Z,2.78
2022-11-05T11:19:31.493Z,2.53
2022-11-05T11:22:03.875Z,4.88
2022-11-05T11:24:36.928Z,3.45
2022-11-05T11:27:26.906Z,3.13
2022-11-05T11:30:05.291Z,4.60
2022-11-05T11:32:36.602Z,3.40
2022-11-05T11:35:04.556Z,3.00
2022-11-05T11:37:42.122Z,2.25
2022-11-05T11:40:25.111Z,5.03
2022-11-05T11:42:55.832Z,2.83
2022-11-05T11:45:36.519Z,3.25
2022-11-05T11:48:06.294Z,2.80
2022-11-05T11:50:39.812Z,2.97
2022-11-05T11:53:21.536Z,3.88
2022-11-05T11:56:18.495Z,4.63
2022-11-05T11:58:47.794Z,5.28
2022-11-05T12:01:27.219Z,2.13
2022-11-05T12:04:11.537Z,3.50
2022-11-05T12:07:12.155Z,3.70
2022-11-05T12:09:53.856Z,2.60
2022-11-05T12:12:46.774Z,1.83
2022-11-05T12:15:38.112Z,3.67
2022-11-05T12:18:18.899Z,3.40
2022-11-05T12:20:48.090Z,3.05
2022-11-05T12:23:39.198Z,4.85
2022-11-05T12:26:23.993Z,2.50
2022-11-05T12:29:17.374Z,4.05
2022-11-05T12:31:47.910Z,2.25
2022-11-05T12:34:48.078Z,3.28
2022-11-05T12:38:05.880Z,5.80
2022-11-05T12:41:00.031Z,3.45
2022-11-05T12:43:40.463Z,3.17
2022-11-05T12:46:16.762Z,2.70
2022-11-05T12:49:01.458Z,3.10
2022-11-05T12:51:45.746Z,4.40
2022-11-05T12:54:54.729Z,4.65
2022-11-05T12:57:23.044Z,3.63
2022-11-05T13:00:06.282Z,3.20
2022-11-05T13:02:48.223Z,2.85
2022-11-05T13:05:29.680Z,2.78
2022-11-05T13:08:02.178Z,4.18
2022-11-05T13:10:52.526Z,1.70
2022-11-05T13:13:37.130Z,4.38
2022-11-05T13:16:16.934Z,6.10
2022-11-05T13:18:51.987Z,3.42
2022-11-05T13:21:24.126Z,2.72
2022-11-05T13:24:18.718Z,2.78
2022-11-05T13:26:54.242Z,1.77
2022-11-05T13:29:28.598Z,1.42
2022-11-05T13:32:08.193Z,1.38
2022-11-05T13:34:37.636Z,2.70
2022-11-05T13:37:25.304Z,1.73
2022-11-05T13:40:01.519Z,4.75
2022-11-05T13:42:40.038Z,1.63
2022-11-05T13:45:24.706Z,3.28
2022-11-05T13:48:23.674Z,3.05
2022-11-05T13:51:27.311Z,3.47
2022-11-05T13:54:12.712Z,2.50
2022-11-05T13:57:03.581Z,2.58
2022-11-05T13:59:35.956Z,3.00
2022-11-05T14:02:11.945Z,3.25
2022-11-05T14:04:47.809Z,1.58
2022-11-05T14:07:34.350Z,2.20
2022-11-05T14:10:21.861Z,2.78
2022-11-05T14:12:53.010Z,2.70
2022-11-05T14:15:29.642Z,3.28
2022-11-05T14:18:16.860Z,1.27
2022-11-05T14:20:47.593Z,2.90
2022-11-05T14:23:23.421Z,1.75
2022-11-05T14:26:12.476Z,2.60
2022-11-05T14:28:43.159Z,1.40
2022-11-05T14:31:18.696Z,2.17
2022-11-05T14:34:14.429Z,3.05
2022-11-05T14:36:43.262Z,2.88
2022-11-05T14:39:26.474Z,1.65
2022-11-05T14:42:02.981Z,3.03
2022-11-05T14:44:32.981Z,4.25
2022-11-05T14:47:05.767Z,2.67
2022-11-05T14:49:53.238Z,3.70
2022-11-05T14:52:20.477Z,2.00
2022-11-05T14:54:58.212Z,5.20
2022-11-05T14:57:43.058Z,1.65
2022-11-05T15:00:29.517Z,5.23
2022-11-05T15:03:05.307Z,5.60
2022-11-05T15:05:33.203Z,4.97
2022-11-05T15:08:20.197Z,4.05
2022-11-05T15:10:48.127Z,9.38
2022-11-05T15:13:30.392Z,7.93
2022-11-05T15:15:58.155Z,7.40
2022-11-05T15:18:40.513Z,6.22
2022-11-05T15:21:13.211Z,6.90
2022-11-05T15:23:43.408Z,6.20
2022-11-05T15:26:23.622Z,5.05
2022-11-05T15:28:52.439Z,7.57
2022-11-05T15:31:33.376Z,4.18
2022-11-05T15:34:33.288Z,2.67
2022-11-05T15:37:20.163Z,4.80
2022-11-05T15:39:48.344Z,5.47
2022-11-05T15:42:22.332Z,6.28
2022-11-05T15:44:51.134Z,5.95
2022-11-05T15:47:19.703Z,5.78
2022-11-05T15:49:52.885Z,5.63
2022-11-05T15:52:22.108Z,5.10
2022-11-05T15:55:06.720Z,5.55
2022-11-05T15:57:40.057Z,5.22
2022-11-05T16:00:17.889Z,5.80
2022-11-05T16:03:07.848Z,6.13
2022-11-05T16:05:41.716Z,5.47
2022-11-05T16:08:16.925Z,4.55
2022-11-05T16:10:47.992Z,5.55
2022-11-05T16:13:37.755Z,4.25
2022-11-05T16:16:33.920Z,3.90
2022-11-05T16:21:27.529Z,4.97
2022-11-05T16:23:59.945Z,5.85
2022-11-05T16:29:38.029Z,5.13
2022-11-05T16:32:16.689Z,4.45
2022-11-05T16:35:06.886Z,4.38
2022-11-05T16:37:41.591Z,3.80
2022-11-05T16:40:16.904Z,4.40
2022-11-05T16:45:13.564Z,4.38
2022-11-05T16:47:40.016Z,3.92
2022-11-05T16:50:29.989Z,3.90
2022-11-05T16:52:56.467Z,3.63
2022-11-05T16:55:22.926Z,5.22
2022-11-05T16:57:52.093Z,4.85
2022-11-05T17:00:20.576Z,4.95
2022-11-05T17:02:48.314Z,4.90
2022-11-05T17:05:22.596Z,4.30
2022-11-05T17:07:49.167Z,3.55
2022-11-05T17:10:16.162Z,2.65
2022-11-05T17:12:42.983Z,3.92
2022-11-05T17:15:31.069Z,3.88
2022-11-05T17:17:58.864Z,4.00
2022-11-05T17:20:40.306Z,3.90
2022-11-05T17:23:09.654Z,3.83
2022-11-05T17:25:43.574Z,3.95
2022-11-05T17:28:10.661Z,3.72
2022-11-05T17:30:41.721Z,4.15
2022-11-05T17:33:10.848Z,4.88
2022-11-05T17:35:41.884Z,4.07
2022-11-05T17:38:09.325Z,2.65
2022-11-05T17:40:36.763Z,3.92
2022-11-05T17:43:03.884Z,4.18
2022-11-05T17:45:30.929Z,1.85
2022-11-05T17:47:57.368Z,2.13
2022-11-05T17:50:24.669Z,2.40
2022-11-05T17:52:51.239Z,3.75
2022-11-05T17:55:17.771Z,3.53
2022-11-05T17:57:46.554Z,2.97
2022-11-05T18:00:16.081Z,2.90
2022-11-05T18:02:42.776Z,5.38
2022-11-05T18:05:10.082Z,2.80
2022-11-05T18:07:36.824Z,3.20
2022-11-05T18:10:03.697Z,4.57
2022-11-05T18:12:30.102Z,5.55
2022-11-05T18:14:56.557Z,5.93
2022-11-05T18:17:22.997Z,4.55
2022-11-05T18:19:49.533Z,3.85
2022-11-05T18:22:18.282Z,3.33
2022-11-05T18:24:45.259Z,5.43
2022-11-05T18:27:12.333Z,4.57
2022-11-05T18:29:38.833Z,6.07
2022-11-05T18:32:05.417Z,7.57
2022-11-05T18:34:31.992Z,6.25
2022-11-05T18:36:58.544Z,4.53
2022-11-05T18:39:25.034Z,5.78
2022-11-05T18:41:51.477Z,7.00
2022-11-05T18:44:22.611Z,3.00
2022-11-05T18:46:58.126Z,3.20
2022-11-05T18:49:25.589Z,2.83
2022-11-05T18:51:52.015Z,3.03
2022-11-05T18:54:18.656Z,2.33
2022-11-05T18:56:45.676Z,2.13
2022-11-05T18:59:36.754Z,3.65
2022-11-05T19:02:00.306Z,3.40
2022-11-05T19:04:27.007Z,3.55
2022-11-05T19:06:53.553Z,4.35
2022-11-05T19:09:20.797Z,4.72
2022-11-05T19:11:47.483Z,2.75
2022-11-05T19:14:13.963Z,3.70
2022-11-05T19:16:40.382Z,5.22
2022-11-05T19:19:06.924Z,3.33
2022-11-05T19:21:36.315Z,3.45
2022-11-05T19:24:03.891Z,3.50
2022-11-05T19:26:30.802Z,2.85
2022-11-05T19:28:59.497Z,2.22
2022-11-05T19:31:26.895Z,2.90
2022-11-05T19:33:54.437Z,2.92
2022-11-05T19:36:23.136Z,2.80
2022-11-05T19:38:57.540Z,4.05
2022-11-05T19:41:27.601Z,5.93
2022-11-05T19:43:55.125Z,3.15
2022-11-05T19:46:23.614Z,5.82
2022-11-05T19:48:50.805Z,5.60
2022-11-05T19:51:20.859Z,4.65
2022-11-05T19:53:47.498Z,6.07
2022-11-05T19:56:16.978Z,2.67
2022-11-05T19:58:44.255Z,4.18
2022-11-05T20:01:13.647Z,5.07
2022-11-05T20:03:41.251Z,2.97
2022-11-05T20:06:11.133Z,3.83
2022-11-05T20:08:59.344Z,2.83
2022-11-05T20:11:28.230Z,1.52
2022-11-05T20:13:54.759Z,2.38
2022-11-05T20:16:32.349Z,2.70
2022-11-05T20:18:59.077Z,3.22
2022-11-05T20:21:25.624Z,3.65
2022-11-05T20:23:52.178Z,3.08
2022-11-05T20:26:18.622Z,5.43
2022-11-05T20:28:45.710Z,1.75
2022-11-05T20:31:15.503Z,3.55
2022-11-05T20:33:43.084Z,1.20
2022-11-05T20:36:16.955Z,3.33
2022-11-05T20:38:47.061Z,4.70
2022-11-05T20:41:13.709Z,2.67
2022-11-05T20:43:41.429Z,3.25
2022-11-05T20:46:09.809Z,4.50
2022-11-05T20:48:36.773Z,3.30
2022-11-05T20:51:08.371Z,6.28
2022-11-05T20:53:35.969Z,2.38
2022-11-05T20:56:07.616Z,3.67
2022-11-05T20:58:35.750Z,5.20
2022-11-05T21:01:02.957Z,7.07
2022-11-05T21:03:29.359Z,3.33
2022-11-05T21:05:59.791Z,4.95
2022-11-05T21:08:27.796Z,3.13
2022-11-05T21:10:55.216Z,2.95
2022-11-05T21:13:22.617Z,4.05
2022-11-05T21:15:50.882Z,3.95
2022-11-05T21:18:18.661Z,5.07
2022-11-05T21:20:46.247Z,4.88
2022-11-05T21:23:13.288Z,6.53
2022-11-05T21:25:41.208Z,7.60
2022-11-05T21:28:08.522Z,5.18
2022-11-05T21:30:37.729Z,6.07
2022-11-05T21:33:05.348Z,5.72
2022-11-05T21:35:32.169Z,4.53
2022-11-05T21:37:58.600Z,5.85
2022-11-05T21:40:25.156Z,3.67
2022-11-05T21:42:51.801Z,2.00
2022-11-05T21:45:18.254Z,4.97
2022-11-05T21:47:44.637Z,3.60
2022-11-05T21:50:11.203Z,4.05
2022-11-05T21:52:56.005Z,6.50
2022-11-05T21:55:22.425Z,5.10
2022-11-05T21:58:07.685Z,7.55
2022-11-05T22:00:34.135Z,5.50
2022-11-05T22:03:00.658Z,5.32
2022-11-05T22:05:27.650Z,6.25
2022-11-05T22:07:54.071Z,6.82
2022-11-05T22:10:20.685Z,4.25
2022-11-05T22:12:47.101Z,3.20
2022-11-05T22:15:14.378Z,5.93
2022-11-05T22:17:46.234Z,2.95
2022-11-05T22:20:13.851Z,6.18
2022-11-05T22:22:40.305Z,4.88
2022-11-05T22:25:07.079Z,1.75
2022-11-05T22:27:33.479Z,4.50
2022-11-05T22:29:59.899Z,5.53
2022-11-05T22:32:26.284Z,4.88
2022-11-05T22:34:52.754Z,6.85
2022-11-05T22:37:19.221Z,1.90
2022-11-05T22:39:45.652Z,5.93
2022-11-05T22:42:12.479Z,5.53
2022-11-05T22:44:38.984Z,6.25
2022-11-05T22:47:06.045Z,5.70
2022-11-05T22:49:32.975Z,5.00
2022-11-05T22:52:02.361Z,5.43
2022-11-05T22:54:28.930Z,1.58
2022-11-05T22:56:55.348Z,6.07
2022-11-05T22:59:21.816Z,4.95
2022-11-05T23:01:49.312Z,5.50
2022-11-05T23:04:16.389Z,4.50
2022-11-05T23:07:02.003Z,6.00
2022-11-05T23:09:52.119Z,6.22
2022-11-05T23:12:28.533Z,7.45
2022-11-05T23:14:57.115Z,5.68
2022-11-05T23:17:42.717Z,5.97
2022-11-05T23:20:35.329Z,3.72
2022-11-05T23:23:20.631Z,5.65
2022-11-05T23:25:47.168Z,5.10
2022-11-05T23:28:13.949Z,5.28
2022-11-05T23:31:03.491Z,3.80
2022-11-05T23:33:33.871Z,5.13
2022-11-05T23:36:19.226Z,5.50
2022-11-05T23:38:45.641Z,3.47
2022-11-05T23:41:30.401Z,2.90
2022-11-05T23:44:15.333Z,3.85
2022-11-05T23:47:00.188Z,5.70
2022-11-05T23:49:27.842Z,1.67
2022-11-05T23:51:54.240Z,4.28
2022-11-05T23:54:21.888Z,4.10
2022-11-05T23:56:48.308Z,5.00
2022-11-05T23:59:14.743Z,4.45
